createdAt,value
2023-05-18T00:02:04.690Z,99977.81
2023-05-18T00:04:34.542Z,99974.09
2023-05-18T00:07:06.833Z,99981.31
2023-05-18T00:09:35.470Z,99995.31
2023-05-18T00:12:04.395Z,99986.13
2023-05-18T00:14:31.859Z,99980.19
2023-05-18T00:17:01.898Z,99996.00
2023-05-18T00:19:30.140Z,99976.84
2023-05-18T00:21:57.980Z,99982.34
2023-05-18T00:24:25.590Z,99982.06
2023-05-18T00:26:52.822Z,99986.28
2023-05-18T00:29:19.972Z,99985.37
2023-05-18T00:31:47.514Z,99980.56
2023-05-18T00:34:15.236Z,99983.38
2023-05-18T00:36:43.004Z,99980.06
2023-05-18T00:39:10.535Z,99986.19
2023-05-18T00:41:37.810Z,99980.97
2023-05-18T00:44:05.318Z,99979.84
2023-05-18T00:46:33.481Z,99983.41
2023-05-18T00:49:02.197Z,99978.59
2023-05-18T00:51:29.833Z,99987.28
2023-05-18T00:53:58.355Z,99985.59
2023-05-18T00:56:26.355Z,99991.72
2023-05-18T00:58:57.782Z,99988.81
2023-05-18T01:01:29.312Z,99992.66
2023-05-18T01:03:58.120Z,100006.03
2023-05-18T01:06:25.675Z,100008.53
2023-05-18T01:08:53.592Z,100003.00
2023-05-18T01:11:34.204Z,99998.22
2023-05-18T01:14:06.640Z,99993.22
2023-05-18T01:16:41.737Z,100004.25
2023-05-18T01:19:36.112Z,100007.88
2023-05-18T01:22:09.144Z,100007.28
2023-05-18T01:24:43.233Z,100010.63
2023-05-18T01:27:11.845Z,100015.66
2023-05-18T01:29:39.306Z,100017.88
2023-05-18T01:32:09.388Z,100010.50
2023-05-18T01:34:36.615Z,100016.47
2023-05-18T01:37:04.164Z,100018.28
2023-05-18T01:39:31.504Z,100017.00
2023-05-18T01:41:59.736Z,100016.75
2023-05-18T01:44:29.025Z,100020.34
2023-05-18T01:46:56.176Z,100033.28
2023-05-18T01:49:39.334Z,100031.13
2023-05-18T01:52:27.599Z,100031.59
2023-05-18T01:54:55.492Z,100032.88
2023-05-18T01:57:24.133Z,100030.34
2023-05-18T01:59:51.448Z,100033.63
2023-05-18T02:02:18.700Z,100043.03
2023-05-18T02:04:46.233Z,100040.72
2023-05-18T02:07:13.482Z,100052.16
2023-05-18T02:09:41.036Z,100043.47
2023-05-18T02:12:08.550Z,100032.41
2023-05-18T02:14:36.109Z,100044.97
2023-05-18T02:17:03.511Z,100050.25
2023-05-18T02:19:31.197Z,100046.44
2023-05-18T02:21:58.455Z,100052.12
2023-05-18T02:24:25.725Z,100052.69
2023-05-18T02:26:53.274Z,100049.00
2023-05-18T02:29:20.832Z,100057.09
2023-05-18T02:31:48.063Z,100054.81
2023-05-18T02:34:17.112Z,100059.38
2023-05-18T02:36:46.231Z,100050.44
2023-05-18T02:39:13.602Z,100055.62
2023-05-18T02:41:40.976Z,100058.25
2023-05-18T02:44:08.673Z,100063.91
2023-05-18T02:46:35.968Z,100056.03
2023-05-18T02:49:03.186Z,100061.31
2023-05-18T02:51:31.572Z,100063.75
2023-05-18T02:53:58.958Z,100057.22
2023-05-18T02:56:26.654Z,100059.28
2023-05-18T02:58:58.251Z,100055.13
2023-05-18T03:01:28.984Z,100050.19
2023-05-18T03:03:59.538Z,100054.44
2023-05-18T03:06:27.238Z,100053.00
2023-05-18T03:08:54.919Z,100050.47
2023-05-18T03:11:23.202Z,100056.38
2023-05-18T03:13:50.442Z,100063.28
2023-05-18T03:16:17.685Z,100058.94
2023-05-18T03:18:46.226Z,100056.97
2023-05-18T03:21:16.709Z,100062.06
2023-05-18T03:23:43.907Z,100063.41
2023-05-18T03:26:12.453Z,100060.84
2023-05-18T03:28:39.686Z,100070.78
2023-05-18T03:31:06.985Z,100062.47
2023-05-18T03:33:34.516Z,100067.84
2023-05-18T03:36:02.763Z,100077.56
2023-05-18T03:38:30.026Z,100078.31
2023-05-18T03:40:58.210Z,100077.87
2023-05-18T03:43:26.069Z,100073.06
2023-05-18T03:45:53.987Z,100073.84
2023-05-18T03:48:22.799Z,100080.16
2023-05-18T03:50:50.018Z,100084.47
2023-05-18T03:53:21.527Z,100082.62
2023-05-18T03:55:52.437Z,100091.25
2023-05-18T03:58:20.277Z,100091.13
2023-05-18T04:00:47.590Z,100091.66
2023-05-18T04:03:15.294Z,100100.94
2023-05-18T04:05:45.992Z,100096.56
2023-05-18T04:08:14.751Z,100100.53
2023-05-18T04:10:43.233Z,100109.25
2023-05-18T04:13:10.598Z,100102.78
2023-05-18T04:15:38.113Z,100106.06
2023-05-18T04:18:05.713Z,100109.53
2023-05-18T04:20:33.052Z,100109.91
2023-05-18T04:23:01.292Z,100114.56
2023-05-18T04:25:28.962Z,100102.81
2023-05-18T04:27:56.800Z,100111.41
2023-05-18T04:30:26.643Z,100115.78
2023-05-18T04:32:54.772Z,100115.94
2023-05-18T04:35:22.331Z,100116.56
2023-05-18T04:37:49.932Z,100125.97
2023-05-18T04:40:17.771Z,100112.63
2023-05-18T04:42:49.518Z,100125.78
2023-05-18T04:45:19.298Z,100125.94
2023-05-18T04:47:48.537Z,100125.53
2023-05-18T04:50:16.229Z,100124.34
2023-05-18T04:52:48.037Z,100122.22
2023-05-18T04:55:23.163Z,100122.34
2023-05-18T04:57:50.982Z,100124.34
2023-05-18T05:00:18.526Z,100124.13
2023-05-18T05:02:46.451Z,100117.22
2023-05-18T05:05:14.163Z,100128.13
2023-05-18T05:07:41.467Z,100119.31
2023-05-18T05:10:09.685Z,100130.00
2023-05-18T05:12:37.682Z,100130.59
2023-05-18T05:15:06.364Z,100136.44
2023-05-18T05:17:33.703Z,100131.81
2023-05-18T05:20:01.326Z,100142.47
2023-05-18T05:22:29.116Z,100137.81
2023-05-18T05:24:56.578Z,100139.41
2023-05-18T05:27:26.208Z,100139.81
2023-05-18T05:29:53.508Z,100137.38
2023-05-18T05:32:20.730Z,100144.34
2023-05-18T05:34:51.815Z,100141.44
2023-05-18T05:37:19.795Z,100141.06
2023-05-18T05:39:48.483Z,100147.72
2023-05-18T05:42:16.760Z,100141.00
2023-05-18T05:44:44.040Z,100138.94
2023-05-18T05:47:11.299Z,100143.47
2023-05-18T05:49:39.019Z,100148.75
2023-05-18T05:52:07.006Z,100156.28
2023-05-18T05:54:34.345Z,100148.97
2023-05-18T05:57:01.901Z,100147.31
2023-05-18T05:59:29.384Z,100151.12
2023-05-18T06:01:56.830Z,100151.31
2023-05-18T06:04:24.792Z,100168.81
2023-05-18T06:06:53.184Z,100163.03
2023-05-18T06:09:21.289Z,100163.22
2023-05-18T06:11:49.253Z,100164.03
2023-05-18T06:14:16.913Z,100166.00
2023-05-18T06:16:44.476Z,100168.47
2023-05-18T06:19:12.367Z,100164.81
2023-05-18T06:21:39.798Z,100171.19
2023-05-18T06:24:07.915Z,100173.91
2023-05-18T06:26:35.424Z,100178.28
2023-05-18T06:29:03.059Z,100183.00
2023-05-18T06:31:30.732Z,100183.91
2023-05-18T06:33:58.601Z,100180.47
2023-05-18T06:36:25.915Z,100174.56
2023-05-18T06:38:53.501Z,100183.03
2023-05-18T06:41:22.327Z,100187.16
2023-05-18T06:43:50.815Z,100189.44
2023-05-18T06:46:21.178Z,100189.19
2023-05-18T06:48:49.929Z,100200.41
2023-05-18T06:51:17.199Z,100203.16
2023-05-18T06:53:44.693Z,100205.06
2023-05-18T06:56:13.136Z,100198.69
2023-05-18T06:58:41.527Z,100207.06
2023-05-18T07:01:09.360Z,100211.84
2023-05-18T07:03:39.712Z,100217.28
2023-05-18T07:06:07.090Z,100213.44
2023-05-18T07:08:37.269Z,100216.63
2023-05-18T07:11:05.425Z,100221.50
2023-05-18T07:13:32.768Z,100219.16
2023-05-18T07:16:00.007Z,100223.87
2023-05-18T07:18:27.578Z,100222.81
2023-05-18T07:20:54.769Z,100217.72
2023-05-18T07:23:22.496Z,100218.03
2023-05-18T07:25:50.145Z,100227.78
2023-05-18T07:28:17.387Z,100226.34
2023-05-18T07:30:44.577Z,100218.66
2023-05-18T07:33:12.257Z,100223.66
2023-05-18T07:35:39.475Z,100225.22
2023-05-18T07:38:06.694Z,100229.78
2023-05-18T07:40:34.236Z,100226.00
2023-05-18T07:43:01.572Z,100223.87
2023-05-18T07:45:29.186Z,100227.84
2023-05-18T07:47:57.794Z,100223.28
2023-05-18T07:50:25.149Z,100230.06
2023-05-18T07:52:52.367Z,100239.00
2023-05-18T07:55:19.920Z,100229.88
2023-05-18T07:57:47.188Z,100229.19
2023-05-18T08:00:14.733Z,100233.81
2023-05-18T08:02:43.048Z,100234.72
2023-05-18T08:05:11.086Z,100231.38
2023-05-18T08:07:38.369Z,100225.53
2023-05-18T08:10:06.147Z,100237.81
2023-05-18T08:12:33.628Z,100232.97
2023-05-18T08:15:00.926Z,100236.31
2023-05-18T08:17:28.152Z,100231.31
2023-05-18T08:19:57.248Z,100239.84
2023-05-18T08:22:24.514Z,100242.31
2023-05-18T08:24:52.086Z,100248.34
2023-05-18T08:27:20.085Z,100242.78
2023-05-18T08:29:47.413Z,100246.31
2023-05-18T08:32:14.953Z,100253.87
2023-05-18T08:34:42.728Z,100243.66
2023-05-18T08:37:10.107Z,100244.72
2023-05-18T08:39:38.259Z,100254.66
2023-05-18T08:42:41.490Z,100250.69
2023-05-18T08:45:42.904Z,100253.56
2023-05-18T08:48:11.284Z,100255.41
2023-05-18T08:50:38.641Z,100252.69
2023-05-18T08:53:06.413Z,100257.13
2023-05-18T08:55:37.489Z,100254.31
2023-05-18T08:58:07.181Z,100249.94
2023-05-18T09:00:35.396Z,100254.88
2023-05-18T09:03:04.612Z,100252.25
2023-05-18T09:05:32.341Z,100251.19
2023-05-18T09:08:00.442Z,100248.56
2023-05-18T09:10:27.668Z,100244.72
2023-05-18T09:12:54.931Z,100247.69
2023-05-18T09:15:25.287Z,100239.91
2023-05-18T09:17:52.794Z,100242.56
2023-05-18T09:20:20.771Z,100252.38
2023-05-18T09:22:51.428Z,100254.81
2023-05-18T09:25:18.864Z,100246.25
2023-05-18T09:27:46.680Z,100258.72
2023-05-18T09:30:14.225Z,100250.28
2023-05-18T09:32:41.820Z,100258.66
2023-05-18T09:35:09.378Z,100255.44
2023-05-18T09:37:37.206Z,100262.34
2023-05-18T09:40:05.602Z,100258.09
2023-05-18T09:42:37.947Z,100259.28
2023-05-18T09:45:24.259Z,100259.81
2023-05-18T09:47:51.663Z,100265.91
2023-05-18T09:50:20.076Z,100270.34
2023-05-18T09:52:49.271Z,100261.44
2023-05-18T09:55:17.295Z,100257.19
2023-05-18T09:57:49.534Z,100264.66
2023-05-18T10:00:19.128Z,100260.59
2023-05-18T10:02:52.464Z,100266.75
2023-05-18T10:05:23.452Z,100266.59
2023-05-18T10:07:51.171Z,100262.16
2023-05-18T10:10:19.910Z,100268.41
2023-05-18T10:12:47.376Z,100254.78
2023-05-18T10:15:15.603Z,100255.62
2023-05-18T10:17:43.386Z,100260.28
2023-05-18T10:20:10.899Z,100264.53
2023-05-18T10:22:38.431Z,100266.81
2023-05-18T10:25:06.301Z,100267.19
2023-05-18T10:27:34.600Z,100266.56
2023-05-18T10:30:05.340Z,100261.28
2023-05-18T10:32:32.611Z,100269.31
2023-05-18T10:35:00.285Z,100269.47
2023-05-18T10:37:30.822Z,100271.37
2023-05-18T10:39:58.708Z,100274.13
2023-05-18T10:42:26.372Z,100265.22
2023-05-18T10:44:54.638Z,100261.13
2023-05-18T10:47:21.952Z,100258.25
2023-05-18T10:49:49.352Z,100271.37
2023-05-18T10:52:17.058Z,100261.50
2023-05-18T10:54:44.531Z,100265.59
2023-05-18T10:57:12.106Z,100262.44
2023-05-18T10:59:42.563Z,100264.19
2023-05-18T11:02:13.638Z,100267.63
2023-05-18T11:04:41.379Z,100264.34
2023-05-18T11:07:12.409Z,100262.75
2023-05-18T11:09:43.124Z,100267.91
2023-05-18T11:12:14.287Z,100265.34
2023-05-18T11:14:48.681Z,100269.28
2023-05-18T11:17:19.105Z,100271.47
2023-05-18T11:20:09.445Z,100273.84
2023-05-18T11:22:42.785Z,100263.41
2023-05-18T11:25:10.013Z,100269.81
2023-05-18T11:27:37.466Z,100273.34
2023-05-18T11:30:15.322Z,100276.78
2023-05-18T11:32:49.940Z,100277.28
2023-05-18T11:35:23.057Z,100275.69
2023-05-18T11:37:50.617Z,100277.16
2023-05-18T11:40:36.817Z,100276.69
2023-05-18T11:43:04.382Z,100284.41
2023-05-18T11:45:31.486Z,100281.75
2023-05-18T11:47:58.602Z,100286.25
2023-05-18T11:50:26.179Z,100284.06
2023-05-18T11:52:53.532Z,100280.84
2023-05-18T11:55:21.063Z,100290.28
2023-05-18T11:57:49.158Z,100286.47
2023-05-18T12:00:19.420Z,100292.66
2023-05-18T12:02:47.617Z,100281.37
2023-05-18T12:05:15.279Z,100288.47
2023-05-18T12:07:42.473Z,100278.72
2023-05-18T12:10:10.878Z,100283.25
2023-05-18T12:12:38.346Z,100289.66
2023-05-18T12:15:06.490Z,100283.41
2023-05-18T12:17:49.854Z,100292.38
2023-05-18T12:20:25.300Z,100290.16
2023-05-18T12:22:53.858Z,100296.06
2023-05-18T12:25:22.008Z,100287.63
2023-05-18T12:27:49.580Z,100297.16
2023-05-18T12:30:20.814Z,100294.37
2023-05-18T12:32:52.060Z,100294.91
2023-05-18T12:35:26.144Z,100292.47
2023-05-18T12:37:56.054Z,100286.62
2023-05-18T12:40:24.228Z,100286.03
2023-05-18T12:43:00.852Z,100286.88
2023-05-18T12:45:29.376Z,100286.06
2023-05-18T12:47:57.424Z,100290.25
2023-05-18T12:50:28.510Z,100280.31
2023-05-18T12:52:56.687Z,100291.87
2023-05-18T12:55:25.338Z,100286.12
2023-05-18T12:58:02.590Z,100284.31
2023-05-18T13:00:33.904Z,100282.59
2023-05-18T13:03:08.493Z,100283.38
2023-05-18T13:05:37.627Z,100290.06
2023-05-18T13:08:05.153Z,100280.53
2023-05-18T13:10:33.127Z,100286.00
2023-05-18T13:13:03.963Z,100289.41
2023-05-18T13:15:35.864Z,100293.12
2023-05-18T13:18:04.357Z,100297.44
2023-05-18T13:20:36.678Z,100290.03
2023-05-18T13:23:06.154Z,100288.47
2023-05-18T13:25:33.752Z,100286.00
2023-05-18T13:28:01.629Z,100282.44
2023-05-18T13:30:29.443Z,100289.38
2023-05-18T13:32:57.567Z,100291.34
2023-05-18T13:35:24.865Z,100292.28
2023-05-18T13:37:52.363Z,100294.66
2023-05-18T13:40:20.779Z,100287.94
2023-05-18T13:42:48.554Z,100291.63
2023-05-18T13:45:16.410Z,100291.09
2023-05-18T13:47:45.881Z,100297.63
2023-05-18T13:50:13.280Z,100289.22
2023-05-18T13:52:40.810Z,100291.75
2023-05-18T13:55:09.971Z,100288.94
2023-05-18T13:57:37.761Z,100292.00
2023-05-18T14:00:10.463Z,100295.41
2023-05-18T14:02:42.390Z,100289.19
2023-05-18T14:05:10.522Z,100298.91
2023-05-18T14:07:38.100Z,100304.31
2023-05-18T14:10:05.990Z,100299.88
2023-05-18T14:12:33.710Z,100300.72
2023-05-18T14:15:00.965Z,100302.81
2023-05-18T14:17:29.915Z,100294.56
2023-05-18T14:19:57.621Z,100296.28
2023-05-18T14:22:26.286Z,100296.84
2023-05-18T14:24:53.615Z,100296.78
2023-05-18T14:27:21.220Z,100299.06
2023-05-18T14:29:48.741Z,100301.16
2023-05-18T14:32:15.909Z,100303.91
2023-05-18T14:34:43.332Z,100297.91
2023-05-18T14:37:10.606Z,100302.31
2023-05-18T14:39:37.972Z,100310.50
2023-05-18T14:42:05.956Z,100312.31
2023-05-18T14:44:33.202Z,100307.72
2023-05-18T14:47:00.488Z,100311.44
2023-05-18T14:49:28.000Z,100308.56
2023-05-18T14:51:55.079Z,100306.97
2023-05-18T14:54:22.561Z,100309.13
2023-05-18T14:56:49.959Z,100310.53
2023-05-18T14:59:17.055Z,100306.00
2023-05-18T15:01:44.296Z,100307.87
2023-05-18T15:04:12.059Z,100315.41
2023-05-18T15:06:39.501Z,100315.41
2023-05-18T15:09:08.477Z,100315.53
2023-05-18T15:11:35.927Z,100306.41
2023-05-18T15:14:03.048Z,100312.03
2023-05-18T15:16:30.203Z,100307.22
2023-05-18T15:18:57.841Z,100306.78
2023-05-18T15:21:25.049Z,100305.16
2023-05-18T15:23:52.371Z,100304.28
2023-05-18T15:26:19.871Z,100310.31
2023-05-18T15:28:47.344Z,100311.41
2023-05-18T15:31:14.483Z,100302.97
2023-05-18T15:33:43.819Z,100303.81
2023-05-18T15:36:11.028Z,100306.22
2023-05-18T15:38:38.266Z,100313.84
2023-05-18T15:41:05.706Z,100308.34
2023-05-18T15:43:33.780Z,100305.72
2023-05-18T15:46:01.060Z,100314.84
2023-05-18T15:48:29.727Z,100320.78
2023-05-18T15:50:56.839Z,100315.16
2023-05-18T15:53:24.120Z,100311.94
2023-05-18T15:55:57.492Z,100318.56
2023-05-18T15:58:25.656Z,100310.66
2023-05-18T16:00:53.273Z,100320.28
2023-05-18T16:03:20.985Z,100323.06
2023-05-18T16:05:48.177Z,100323.06
2023-05-18T16:08:15.426Z,100325.94
2023-05-18T16:10:42.817Z,100328.25
2023-05-18T16:13:09.933Z,100328.37
2023-05-18T16:15:37.151Z,100320.88
2023-05-18T16:18:05.087Z,100327.69
2023-05-18T16:20:32.566Z,100330.72
2023-05-18T16:22:59.979Z,100329.53
2023-05-18T16:25:28.765Z,100335.66
2023-05-18T16:27:55.883Z,100329.72
2023-05-18T16:30:23.082Z,100337.88
2023-05-18T16:32:50.676Z,100337.94
2023-05-18T16:35:17.894Z,100340.59
2023-05-18T16:37:45.090Z,100338.00
2023-05-18T16:40:12.566Z,100330.06
2023-05-18T16:42:39.634Z,100331.34
2023-05-18T16:45:06.990Z,100337.47
2023-05-18T16:47:34.385Z,100329.44
2023-05-18T16:50:01.825Z,100331.00
2023-05-18T16:52:28.994Z,100333.69
2023-05-18T16:54:56.431Z,100329.56
2023-05-18T16:57:27.235Z,100335.22
2023-05-18T16:59:54.695Z,100340.62
2023-05-18T17:02:24.348Z,100340.97
2023-05-18T17:04:51.620Z,100337.34
2023-05-18T17:07:18.862Z,100337.56
2023-05-18T17:09:46.372Z,100340.47
2023-05-18T17:12:13.786Z,100340.97
2023-05-18T17:14:40.893Z,100332.41
2023-05-18T17:17:08.527Z,100344.66
2023-05-18T17:19:35.629Z,100340.31
2023-05-18T17:22:03.161Z,100345.44
2023-05-18T17:24:30.868Z,100350.34
2023-05-18T17:26:58.025Z,100348.75
2023-05-18T17:29:25.366Z,100341.91
2023-05-18T17:31:52.967Z,100347.12
2023-05-18T17:34:20.517Z,100342.63
2023-05-18T17:36:47.730Z,100347.94
2023-05-18T17:39:18.126Z,100346.13
2023-05-18T17:41:45.516Z,100351.94
2023-05-18T17:44:16.856Z,100350.69
2023-05-18T17:46:47.104Z,100353.34
2023-05-18T17:49:14.628Z,100345.44
2023-05-18T17:51:42.635Z,100348.03
2023-05-18T17:54:10.079Z,100352.44
2023-05-18T17:56:37.610Z,100352.25
2023-05-18T17:59:05.341Z,100343.62
2023-05-18T18:01:33.531Z,100343.59
2023-05-18T18:04:01.561Z,100341.03
2023-05-18T18:06:28.835Z,100341.03
2023-05-18T18:08:57.688Z,100340.91
2023-05-18T18:11:25.930Z,100340.09
2023-05-18T18:13:53.172Z,100344.00
2023-05-18T18:16:20.730Z,100353.66
2023-05-18T18:18:48.436Z,100353.84
2023-05-18T18:21:15.784Z,100356.38
2023-05-18T18:23:43.069Z,100361.56
2023-05-18T18:26:12.936Z,100359.84
2023-05-18T18:28:40.361Z,100355.75
2023-05-18T18:31:07.836Z,100369.69
2023-05-18T18:33:35.745Z,100369.66
2023-05-18T18:36:05.683Z,100373.75
2023-05-18T18:38:34.368Z,100384.22
2023-05-18T18:41:04.627Z,100384.69
2023-05-18T18:43:32.049Z,100391.47
2023-05-18T18:45:59.961Z,100386.25
2023-05-18T18:48:27.686Z,100390.06
2023-05-18T18:50:55.238Z,100382.47
2023-05-18T18:53:23.221Z,100386.31
2023-05-18T18:55:51.124Z,100392.53
2023-05-18T18:58:18.506Z,100391.91
2023-05-18T19:00:47.336Z,100393.34
2023-05-18T19:03:16.250Z,100391.03
2023-05-18T19:05:43.632Z,100398.62
2023-05-18T19:08:10.927Z,100395.34
2023-05-18T19:10:38.548Z,100399.75
2023-05-18T19:13:06.921Z,100399.50
2023-05-18T19:15:34.997Z,100401.59
2023-05-18T19:18:04.093Z,100398.47
2023-05-18T19:20:31.500Z,100405.63
2023-05-18T19:22:59.128Z,100413.50
2023-05-18T19:25:27.118Z,100414.38
2023-05-18T19:27:54.471Z,100413.56
2023-05-18T19:30:22.575Z,100422.44
2023-05-18T19:32:51.088Z,100423.31
2023-05-18T19:35:21.915Z,100427.22
2023-05-18T19:37:49.702Z,100432.50
2023-05-18T19:40:17.254Z,100428.44
2023-05-18T19:42:44.717Z,100438.06
2023-05-18T19:45:13.093Z,100436.44
2023-05-18T19:47:40.613Z,100441.56
2023-05-18T19:50:08.141Z,100446.09
2023-05-18T19:52:35.625Z,100450.16
2023-05-18T19:55:02.970Z,100457.31
2023-05-18T19:57:31.337Z,100462.56
2023-05-18T19:59:58.894Z,100465.13
2023-05-18T20:02:26.172Z,100462.78
2023-05-18T20:04:54.072Z,100467.84
2023-05-18T20:07:22.538Z,100463.81
2023-05-18T20:09:52.906Z,100467.03
2023-05-18T20:12:20.429Z,100465.53
2023-05-18T20:14:48.457Z,100466.72
2023-05-18T20:17:16.963Z,100469.75
2023-05-18T20:19:49.836Z,100471.16
2023-05-18T20:22:17.299Z,100470.34
2023-05-18T20:24:45.080Z,100475.06
2023-05-18T20:27:15.311Z,100483.38
2023-05-18T20:29:42.508Z,100481.00
2023-05-18T20:32:09.991Z,100480.16
2023-05-18T20:34:37.249Z,100480.16
2023-05-18T20:37:09.223Z,100482.03
2023-05-18T20:39:40.516Z,100478.56
2023-05-18T20:42:12.540Z,100480.28
2023-05-18T20:44:42.658Z,100489.09
2023-05-18T20:47:11.219Z,100479.81
2023-05-18T20:49:38.456Z,100485.69
2023-05-18T20:52:06.282Z,100487.44
2023-05-18T20:54:33.511Z,100483.09
2023-05-18T20:57:00.924Z,100486.47
2023-05-18T20:59:28.430Z,100483.81
2023-05-18T21:01:56.612Z,100487.41
2023-05-18T21:04:23.978Z,100482.00
2023-05-18T21:06:51.663Z,100482.81
2023-05-18T21:09:19.411Z,100485.63
2023-05-18T21:11:46.652Z,100483.09
2023-05-18T21:14:14.196Z,100488.37
2023-05-18T21:16:41.672Z,100496.09
2023-05-18T21:19:09.117Z,100497.84
2023-05-18T21:21:36.721Z,100502.28
2023-05-18T21:24:03.911Z,100495.41
2023-05-18T21:26:31.126Z,100500.03
2023-05-18T21:28:58.625Z,100502.44
2023-05-18T21:31:26.303Z,100499.25
2023-05-18T21:33:53.566Z,100511.47
2023-05-18T21:36:23.341Z,100507.69
2023-05-18T21:38:50.502Z,100500.94
2023-05-18T21:41:17.670Z,100502.44
2023-05-18T21:43:45.125Z,100504.03
2023-05-18T21:46:12.442Z,100507.72
2023-05-18T21:48:39.692Z,100507.63
2023-05-18T21:51:07.148Z,100505.72
2023-05-18T21:53:34.472Z,100507.53
2023-05-18T21:56:01.670Z,100505.13
2023-05-18T21:58:29.161Z,100507.69
2023-05-18T22:00:56.527Z,100507.66
2023-05-18T22:03:24.588Z,100505.81
2023-05-18T22:05:52.573Z,100511.19
2023-05-18T22:08:20.132Z,100508.97
2023-05-18T22:10:47.620Z,100512.94
2023-05-18T22:13:15.302Z,100512.94
2023-05-18T22:15:42.609Z,100507.78
2023-05-18T22:18:10.192Z,100515.97
2023-05-18T22:20:37.453Z,100513.97
2023-05-18T22:23:04.656Z,100507.56
2023-05-18T22:25:32.230Z,100511.97
2023-05-18T22:27:59.433Z,100519.03
2023-05-18T22:30:28.425Z,100514.22
2023-05-18T22:32:57.568Z,100516.25
2023-05-18T22:35:24.864Z,100520.50
2023-05-18T22:37:52.053Z,100515.31
2023-05-18T22:40:20.989Z,100516.56
2023-05-18T22:42:48.165Z,100516.06
2023-05-18T22:45:15.424Z,100508.03
2023-05-18T22:47:45.227Z,100501.87
2023-05-18T22:50:12.560Z,100506.44
2023-05-18T22:52:40.617Z,100511.91
2023-05-18T22:55:13.888Z,100506.66
2023-05-18T22:57:41.364Z,100502.63
2023-05-18T23:00:10.516Z,100502.91
2023-05-18T23:02:37.929Z,100504.81
2023-05-18T23:05:05.509Z,100501.56
2023-05-18T23:07:36.143Z,100494.37
2023-05-18T23:10:06.414Z,100498.66
2023-05-18T23:12:36.760Z,100492.94
2023-05-18T23:15:04.311Z,100489.22
2023-05-18T23:17:39.021Z,100497.81
2023-05-18T23:20:06.941Z,100494.41
2023-05-18T23:22:34.954Z,100501.16
2023-05-18T23:25:04.394Z,100505.50
2023-05-18T23:27:32.011Z,100502.91
2023-05-18T23:29:59.348Z,100503.62
2023-05-18T23:32:26.906Z,100505.91
2023-05-18T23:34:56.247Z,100504.56
2023-05-18T23:37:23.898Z,100512.81
2023-05-18T23:39:54.052Z,100513.94
2023-05-18T23:42:21.518Z,100504.38
2023-05-18T23:44:48.856Z,100502.25
2023-05-18T23:47:16.617Z,100504.16
2023-05-18T23:49:44.550Z,100506.53
2023-05-18T23:52:11.945Z,100506.66
2023-05-18T23:54:39.512Z,100499.69
2023-05-18T23:57:07.558Z,100501.81
2023-05-18T23:59:34.900Z,100505.66
